sensor_id;sensor_type;location;lat;lon;timestamp;temperature;humidity
55634;DHT22;41504;53.162;6.788;2024-01-27T00:01:50;5.00;99.90
55634;DHT22;41504;53.162;6.788;2024-01-27T00:04:16;5.00;99.90
55634;DHT22;41504;53.162;6.788;2024-01-27T00:06:42;5.00;99.90
55634;DHT22;41504;53.162;6.788;2024-01-27T00:09:07;5.00;99.90
55634;DHT22;41504;53.162;6.788;2024-01-27T00:11:33;5.00;99.90
55634;DHT22;41504;53.162;6.788;2024-01-27T00:13:59;5.00;99.90
55634;DHT22;41504;53.162;6.788;2024-01-27T00:16:25;5.40;99.90
55634;DHT22;41504;53.162;6.788;2024-01-27T00:18:51;4.90;99.90
55634;DHT22;41504;53.162;6.788;2024-01-27T00:21:16;4.90;99.90
55634;DHT22;41504;53.162;6.788;2024-01-27T00:23:42;4.90;99.90
55634;DHT22;41504;53.162;6.788;2024-01-27T00:26:08;4.80;99.90
55634;DHT22;41504;53.162;6.788;2024-01-27T00:28:34;4.80;99.90
55634;DHT22;41504;53.162;6.788;2024-01-27T00:30:59;5.00;99.90
55634;DHT22;41504;53.162;6.788;2024-01-27T00:33:28;4.80;99.90
55634;DHT22;41504;53.162;6.788;2024-01-27T00:35:54;5.50;99.90
55634;DHT22;41504;53.162;6.788;2024-01-27T00:38:22;4.80;99.90
55634;DHT22;41504;53.162;6.788;2024-01-27T00:40:48;5.30;99.90
55634;DHT22;41504;53.162;6.788;2024-01-27T00:43:14;4.70;99.90
55634;DHT22;41504;53.162;6.788;2024-01-27T00:45:40;4.70;99.90
55634;DHT22;41504;53.162;6.788;2024-01-27T00:48:08;4.70;99.90
55634;DHT22;41504;53.162;6.788;2024-01-27T00:50:34;4.70;99.90
55634;DHT22;41504;53.162;6.788;2024-01-27T00:53:00;4.60;99.90
55634;DHT22;41504;53.162;6.788;2024-01-27T00:55:25;4.60;99.90
55634;DHT22;41504;53.162;6.788;2024-01-27T00:57:51;4.60;99.90
55634;DHT22;41504;53.162;6.788;2024-01-27T01:00:17;4.50;99.90
55634;DHT22;41504;53.162;6.788;2024-01-27T01:02:43;4.50;99.90
55634;DHT22;41504;53.162;6.788;2024-01-27T01:05:08;4.50;99.90
55634;DHT22;41504;53.162;6.788;2024-01-27T01:07:34;4.60;99.90
55634;DHT22;41504;53.162;6.788;2024-01-27T01:10:00;4.50;99.90
55634;DHT22;41504;53.162;6.788;2024-01-27T01:12:25;4.50;99.90
55634;DHT22;41504;53.162;6.788;2024-01-27T01:14:52;4.50;99.90
55634;DHT22;41504;53.162;6.788;2024-01-27T01:17:17;4.50;99.90
55634;DHT22;41504;53.162;6.788;2024-01-27T01:19:43;4.50;99.90
55634;DHT22;41504;53.162;6.788;2024-01-27T01:22:12;4.40;99.90
55634;DHT22;41504;53.162;6.788;2024-01-27T01:24:38;4.50;99.90
55634;DHT22;41504;53.162;6.788;2024-01-27T01:27:04;4.50;99.90
55634;DHT22;41504;53.162;6.788;2024-01-27T01:29:31;4.40;99.90
55634;DHT22;41504;53.162;6.788;2024-01-27T01:31:57;4.40;99.90
55634;DHT22;41504;53.162;6.788;2024-01-27T01:34:22;5.10;99.90
55634;DHT22;41504;53.162;6.788;2024-01-27T01:36:48;4.40;99.90
55634;DHT22;41504;53.162;6.788;2024-01-27T01:39:14;4.40;99.90
55634;DHT22;41504;53.162;6.788;2024-01-27T01:41:40;4.40;99.90
55634;DHT22;41504;53.162;6.788;2024-01-27T01:44:06;4.40;99.90
55634;DHT22;41504;53.162;6.788;2024-01-27T01:46:33;4.40;99.90
55634;DHT22;41504;53.162;6.788;2024-01-27T01:49:00;4.40;99.90
55634;DHT22;41504;53.162;6.788;2024-01-27T01:51:26;4.40;99.90
55634;DHT22;41504;53.162;6.788;2024-01-27T01:53:57;4.40;99.90
55634;DHT22;41504;53.162;6.788;2024-01-27T01:56:23;4.40;99.90
55634;DHT22;41504;53.162;6.788;2024-01-27T01:58:57;4.40;99.90
55634;DHT22;41504;53.162;6.788;2024-01-27T02:01:22;4.40;99.90
55634;DHT22;41504;53.162;6.788;2024-01-27T02:03:57;4.40;99.90
55634;DHT22;41504;53.162;6.788;2024-01-27T02:06:24;4.30;99.90
55634;DHT22;41504;53.162;6.788;2024-01-27T02:08:51;5.00;99.90
55634;DHT22;41504;53.162;6.788;2024-01-27T02:11:17;4.30;99.90
55634;DHT22;41504;53.162;6.788;2024-01-27T02:13:43;4.30;99.90
55634;DHT22;41504;53.162;6.788;2024-01-27T02:16:09;4.30;99.90
55634;DHT22;41504;53.162;6.788;2024-01-27T02:18:35;4.80;99.90
55634;DHT22;41504;53.162;6.788;2024-01-27T02:21:01;4.30;99.90
55634;DHT22;41504;53.162;6.788;2024-01-27T02:23:26;4.80;99.90
55634;DHT22;41504;53.162;6.788;2024-01-27T02:25:52;4.30;99.90
55634;DHT22;41504;53.162;6.788;2024-01-27T02:28:18;4.30;99.90
55634;DHT22;41504;53.162;6.788;2024-01-27T02:30:44;4.20;99.90
55634;DHT22;41504;53.162;6.788;2024-01-27T02:33:09;4.30;99.90
55634;DHT22;41504;53.162;6.788;2024-01-27T02:35:35;4.20;99.90
55634;DHT22;41504;53.162;6.788;2024-01-27T02:38:01;4.20;99.90
55634;DHT22;41504;53.162;6.788;2024-01-27T02:40:27;4.20;99.90
55634;DHT22;41504;53.162;6.788;2024-01-27T02:42:53;4.20;99.90
55634;DHT22;41504;53.162;6.788;2024-01-27T02:45:22;4.50;99.90
55634;DHT22;41504;53.162;6.788;2024-01-27T02:47:47;4.10;99.90
55634;DHT22;41504;53.162;6.788;2024-01-27T02:50:13;4.20;99.90
55634;DHT22;41504;53.162;6.788;2024-01-27T02:52:39;4.10;99.90
55634;DHT22;41504;53.162;6.788;2024-01-27T02:55:05;4.10;99.90
55634;DHT22;41504;53.162;6.788;2024-01-27T02:57:31;4.10;99.90
55634;DHT22;41504;53.162;6.788;2024-01-27T02:59:57;4.10;99.90
55634;DHT22;41504;53.162;6.788;2024-01-27T03:02:23;4.10;99.90
55634;DHT22;41504;53.162;6.788;2024-01-27T03:04:48;4.10;99.90
55634;DHT22;41504;53.162;6.788;2024-01-27T03:07:14;4.10;99.90
55634;DHT22;41504;53.162;6.788;2024-01-27T03:09:40;4.10;99.90
55634;DHT22;41504;53.162;6.788;2024-01-27T03:12:06;4.10;99.90
55634;DHT22;41504;53.162;6.788;2024-01-27T03:14:32;4.00;99.90
55634;DHT22;41504;53.162;6.788;2024-01-27T03:16:58;4.00;99.90
55634;DHT22;41504;53.162;6.788;2024-01-27T03:19:24;4.00;99.90
55634;DHT22;41504;53.162;6.788;2024-01-27T03:21:52;4.10;99.90
55634;DHT22;41504;53.162;6.788;2024-01-27T03:24:18;4.10;99.90
55634;DHT22;41504;53.162;6.788;2024-01-27T03:26:44;3.90;99.90
55634;DHT22;41504;53.162;6.788;2024-01-27T03:29:09;3.90;99.90
55634;DHT22;41504;53.162;6.788;2024-01-27T03:31:35;3.90;99.90
55634;DHT22;41504;53.162;6.788;2024-01-27T03:34:02;3.90;99.90
55634;DHT22;41504;53.162;6.788;2024-01-27T03:36:28;3.90;99.90
55634;DHT22;41504;53.162;6.788;2024-01-27T03:38:58;3.90;99.90
55634;DHT22;41504;53.162;6.788;2024-01-27T03:41:26;4.50;99.90
55634;DHT22;41504;53.162;6.788;2024-01-27T03:43:52;4.30;99.90
55634;DHT22;41504;53.162;6.788;2024-01-27T03:46:18;3.80;99.90
55634;DHT22;41504;53.162;6.788;2024-01-27T03:48:44;3.80;99.90
55634;DHT22;41504;53.162;6.788;2024-01-27T03:51:10;3.70;99.90
55634;DHT22;41504;53.162;6.788;2024-01-27T03:53:36;3.70;99.90
55634;DHT22;41504;53.162;6.788;2024-01-27T03:56:02;3.70;99.90
55634;DHT22;41504;53.162;6.788;2024-01-27T03:58:30;3.60;99.90
55634;DHT22;41504;53.162;6.788;2024-01-27T04:00:56;3.60;99.90
55634;DHT22;41504;53.162;6.788;2024-01-27T04:03:22;3.60;99.90
55634;DHT22;41504;53.162;6.788;2024-01-27T04:05:48;3.60;99.90
55634;DHT22;41504;53.162;6.788;2024-01-27T04:08:14;3.60;99.90
55634;DHT22;41504;53.162;6.788;2024-01-27T04:10:39;4.00;99.90
55634;DHT22;41504;53.162;6.788;2024-01-27T04:13:05;3.50;99.90
55634;DHT22;41504;53.162;6.788;2024-01-27T04:15:34;3.50;99.90
55634;DHT22;41504;53.162;6.788;2024-01-27T04:18:07;3.50;99.90
55634;DHT22;41504;53.162;6.788;2024-01-27T04:20:34;3.50;99.90
55634;DHT22;41504;53.162;6.788;2024-01-27T04:23:00;3.50;99.90
55634;DHT22;41504;53.162;6.788;2024-01-27T04:25:26;3.50;99.90
55634;DHT22;41504;53.162;6.788;2024-01-27T04:27:52;3.50;99.90
55634;DHT22;41504;53.162;6.788;2024-01-27T04:30:18;3.50;99.90
55634;DHT22;41504;53.162;6.788;2024-01-27T04:32:44;3.70;99.90
55634;DHT22;41504;53.162;6.788;2024-01-27T04:35:10;3.50;99.90
55634;DHT22;41504;53.162;6.788;2024-01-27T04:37:36;3.60;99.90
55634;DHT22;41504;53.162;6.788;2024-01-27T04:40:04;3.60;99.90
55634;DHT22;41504;53.162;6.788;2024-01-27T04:42:30;3.60;99.90
55634;DHT22;41504;53.162;6.788;2024-01-27T04:44:55;3.70;99.90
55634;DHT22;41504;53.162;6.788;2024-01-27T04:47:21;3.70;99.90
55634;DHT22;41504;53.162;6.788;2024-01-27T04:49:47;3.70;99.90
55634;DHT22;41504;53.162;6.788;2024-01-27T04:52:12;3.70;99.90
55634;DHT22;41504;53.162;6.788;2024-01-27T04:54:38;3.70;99.90
55634;DHT22;41504;53.162;6.788;2024-01-27T04:57:04;3.80;99.90
55634;DHT22;41504;53.162;6.788;2024-01-27T04:59:30;3.70;99.90
55634;DHT22;41504;53.162;6.788;2024-01-27T05:01:56;3.70;99.90
55634;DHT22;41504;53.162;6.788;2024-01-27T05:04:22;3.70;99.90
55634;DHT22;41504;53.162;6.788;2024-01-27T05:06:52;3.80;99.90
55634;DHT22;41504;53.162;6.788;2024-01-27T05:09:18;3.70;99.90
55634;DHT22;41504;53.162;6.788;2024-01-27T05:11:43;3.70;99.90
55634;DHT22;41504;53.162;6.788;2024-01-27T05:14:11;3.70;99.90
55634;DHT22;41504;53.162;6.788;2024-01-27T05:16:37;3.70;99.90
55634;DHT22;41504;53.162;6.788;2024-01-27T05:19:02;3.40;99.90
55634;DHT22;41504;53.162;6.788;2024-01-27T05:21:28;3.70;99.90
55634;DHT22;41504;53.162;6.788;2024-01-27T05:23:56;3.70;99.90
55634;DHT22;41504;53.162;6.788;2024-01-27T05:26:22;3.70;99.90
55634;DHT22;41504;53.162;6.788;2024-01-27T05:28:48;3.70;99.90
55634;DHT22;41504;53.162;6.788;2024-01-27T05:31:13;3.60;99.90
55634;DHT22;41504;53.162;6.788;2024-01-27T05:33:39;3.60;99.90
55634;DHT22;41504;53.162;6.788;2024-01-27T05:36:05;3.60;99.90
55634;DHT22;41504;53.162;6.788;2024-01-27T05:38:31;3.60;99.90
55634;DHT22;41504;53.162;6.788;2024-01-27T05:41:01;3.60;99.90
55634;DHT22;41504;53.162;6.788;2024-01-27T05:43:27;3.60;99.90
55634;DHT22;41504;53.162;6.788;2024-01-27T05:45:53;3.60;99.90
55634;DHT22;41504;53.162;6.788;2024-01-27T05:48:19;3.60;99.90
55634;DHT22;41504;53.162;6.788;2024-01-27T05:50:58;3.60;99.90
55634;DHT22;41504;53.162;6.788;2024-01-27T05:53:25;3.70;99.90
55634;DHT22;41504;53.162;6.788;2024-01-27T05:55:51;3.60;99.90
55634;DHT22;41504;53.162;6.788;2024-01-27T05:58:17;3.60;99.90
55634;DHT22;41504;53.162;6.788;2024-01-27T06:00:43;3.60;99.90
55634;DHT22;41504;53.162;6.788;2024-01-27T06:03:12;3.60;99.90
55634;DHT22;41504;53.162;6.788;2024-01-27T06:05:37;3.60;99.90
55634;DHT22;41504;53.162;6.788;2024-01-27T06:08:04;3.60;99.90
55634;DHT22;41504;53.162;6.788;2024-01-27T06:10:30;3.60;99.90
55634;DHT22;41504;53.162;6.788;2024-01-27T06:12:59;3.60;99.90
55634;DHT22;41504;53.162;6.788;2024-01-27T06:15:25;4.00;99.90
55634;DHT22;41504;53.162;6.788;2024-01-27T06:17:51;4.80;99.90
55634;DHT22;41504;53.162;6.788;2024-01-27T06:20:16;3.60;99.90
55634;DHT22;41504;53.162;6.788;2024-01-27T06:22:44;3.60;99.90
55634;DHT22;41504;53.162;6.788;2024-01-27T06:25:09;3.60;99.90
55634;DHT22;41504;53.162;6.788;2024-01-27T06:27:36;3.60;99.90
55634;DHT22;41504;53.162;6.788;2024-01-27T06:30:04;3.60;99.90
55634;DHT22;41504;53.162;6.788;2024-01-27T06:32:31;3.60;99.90
55634;DHT22;41504;53.162;6.788;2024-01-27T06:34:56;3.60;99.90
55634;DHT22;41504;53.162;6.788;2024-01-27T06:37:22;3.90;99.90
55634;DHT22;41504;53.162;6.788;2024-01-27T06:39:48;3.60;99.90
55634;DHT22;41504;53.162;6.788;2024-01-27T06:42:13;3.50;99.90
55634;DHT22;41504;53.162;6.788;2024-01-27T06:44:39;3.60;99.90
55634;DHT22;41504;53.162;6.788;2024-01-27T06:47:05;3.50;99.90
55634;DHT22;41504;53.162;6.788;2024-01-27T06:49:30;3.50;99.90
55634;DHT22;41504;53.162;6.788;2024-01-27T06:51:56;3.50;99.90
55634;DHT22;41504;53.162;6.788;2024-01-27T06:54:22;3.50;99.90
55634;DHT22;41504;53.162;6.788;2024-01-27T06:56:48;3.50;99.90
55634;DHT22;41504;53.162;6.788;2024-01-27T06:59:14;3.50;99.90
55634;DHT22;41504;53.162;6.788;2024-01-27T07:01:46;3.50;99.90
55634;DHT22;41504;53.162;6.788;2024-01-27T07:04:14;4.00;99.90
55634;DHT22;41504;53.162;6.788;2024-01-27T07:06:40;4.20;99.90
55634;DHT22;41504;53.162;6.788;2024-01-27T07:09:06;4.30;99.90
55634;DHT22;41504;53.162;6.788;2024-01-27T07:11:32;3.50;99.90
55634;DHT22;41504;53.162;6.788;2024-01-27T07:13:59;4.40;99.90
55634;DHT22;41504;53.162;6.788;2024-01-27T07:16:28;4.20;99.90
55634;DHT22;41504;53.162;6.788;2024-01-27T07:18:53;3.50;99.90
55634;DHT22;41504;53.162;6.788;2024-01-27T07:21:19;3.50;99.90
55634;DHT22;41504;53.162;6.788;2024-01-27T07:23:45;3.50;99.90
55634;DHT22;41504;53.162;6.788;2024-01-27T07:26:11;3.50;99.90
55634;DHT22;41504;53.162;6.788;2024-01-27T07:28:37;3.40;99.90
55634;DHT22;41504;53.162;6.788;2024-01-27T07:31:04;3.40;99.90
55634;DHT22;41504;53.162;6.788;2024-01-27T07:33:30;3.40;99.90
55634;DHT22;41504;53.162;6.788;2024-01-27T07:35:56;3.40;99.90
55634;DHT22;41504;53.162;6.788;2024-01-27T07:38:22;3.40;99.90
55634;DHT22;41504;53.162;6.788;2024-01-27T07:40:48;3.40;99.90
55634;DHT22;41504;53.162;6.788;2024-01-27T07:43:13;3.40;99.90
55634;DHT22;41504;53.162;6.788;2024-01-27T07:45:39;3.40;99.90
55634;DHT22;41504;53.162;6.788;2024-01-27T07:48:05;3.40;99.90
55634;DHT22;41504;53.162;6.788;2024-01-27T07:50:31;3.40;99.90
55634;DHT22;41504;53.162;6.788;2024-01-27T07:52:57;3.40;99.90
55634;DHT22;41504;53.162;6.788;2024-01-27T07:55:23;3.40;99.90
55634;DHT22;41504;53.162;6.788;2024-01-27T07:57:49;3.40;99.90
55634;DHT22;41504;53.162;6.788;2024-01-27T08:00:15;3.40;99.90
55634;DHT22;41504;53.162;6.788;2024-01-27T08:02:40;3.40;99.90
55634;DHT22;41504;53.162;6.788;2024-01-27T08:05:06;3.40;99.90
55634;DHT22;41504;53.162;6.788;2024-01-27T08:07:35;3.40;99.90
55634;DHT22;41504;53.162;6.788;2024-01-27T08:10:01;3.50;99.90
55634;DHT22;41504;53.162;6.788;2024-01-27T08:12:27;3.50;99.90
55634;DHT22;41504;53.162;6.788;2024-01-27T08:14:52;3.50;99.90
55634;DHT22;41504;53.162;6.788;2024-01-27T08:17:19;3.50;99.90
55634;DHT22;41504;53.162;6.788;2024-01-27T08:19:45;3.40;99.90
55634;DHT22;41504;53.162;6.788;2024-01-27T08:22:10;3.60;99.90
55634;DHT22;41504;53.162;6.788;2024-01-27T08:24:36;4.20;99.90
55634;DHT22;41504;53.162;6.788;2024-01-27T08:27:02;3.50;99.90
55634;DHT22;41504;53.162;6.788;2024-01-27T08:29:27;3.50;99.90
55634;DHT22;41504;53.162;6.788;2024-01-27T08:31:53;3.60;99.90
55634;DHT22;41504;53.162;6.788;2024-01-27T08:34:19;3.60;99.90
55634;DHT22;41504;53.162;6.788;2024-01-27T08:36:44;4.70;99.90
55634;DHT22;41504;53.162;6.788;2024-01-27T08:41:37;3.80;99.90
55634;DHT22;41504;53.162;6.788;2024-01-27T08:44:03;3.80;99.90
55634;DHT22;41504;53.162;6.788;2024-01-27T08:46:29;3.80;99.90
55634;DHT22;41504;53.162;6.788;2024-01-27T08:48:55;3.90;99.90
55634;DHT22;41504;53.162;6.788;2024-01-27T08:51:20;3.90;99.90
55634;DHT22;41504;53.162;6.788;2024-01-27T08:53:46;4.00;99.90
55634;DHT22;41504;53.162;6.788;2024-01-27T08:56:17;4.10;99.90
55634;DHT22;41504;53.162;6.788;2024-01-27T08:58:46;4.10;99.90
55634;DHT22;41504;53.162;6.788;2024-01-27T09:01:18;4.10;99.90
55634;DHT22;41504;53.162;6.788;2024-01-27T09:03:44;4.20;99.90
55634;DHT22;41504;53.162;6.788;2024-01-27T09:06:10;4.20;99.90
55634;DHT22;41504;53.162;6.788;2024-01-27T09:08:39;4.30;99.90
55634;DHT22;41504;53.162;6.788;2024-01-27T09:11:05;4.40;99.90
55634;DHT22;41504;53.162;6.788;2024-01-27T09:13:31;4.80;99.90
55634;DHT22;41504;53.162;6.788;2024-01-27T09:15:57;4.40;99.90
55634;DHT22;41504;53.162;6.788;2024-01-27T09:18:33;4.50;99.90
55634;DHT22;41504;53.162;6.788;2024-01-27T09:20:58;4.50;99.90
55634;DHT22;41504;53.162;6.788;2024-01-27T09:23:27;4.60;99.90
55634;DHT22;41504;53.162;6.788;2024-01-27T09:25:53;4.50;99.90
55634;DHT22;41504;53.162;6.788;2024-01-27T09:28:19;4.60;99.90
55634;DHT22;41504;53.162;6.788;2024-01-27T09:30:45;4.70;99.90
55634;DHT22;41504;53.162;6.788;2024-01-27T09:33:11;4.80;99.90
55634;DHT22;41504;53.162;6.788;2024-01-27T09:35:37;4.80;99.90
55634;DHT22;41504;53.162;6.788;2024-01-27T09:38:02;4.90;99.90
55634;DHT22;41504;53.162;6.788;2024-01-27T09:40:28;4.90;99.90
55634;DHT22;41504;53.162;6.788;2024-01-27T09:42:59;4.90;99.90
55634;DHT22;41504;53.162;6.788;2024-01-27T09:45:26;5.00;99.90
55634;DHT22;41504;53.162;6.788;2024-01-27T09:47:53;5.00;99.90
55634;DHT22;41504;53.162;6.788;2024-01-27T09:50:19;5.50;99.90
55634;DHT22;41504;53.162;6.788;2024-01-27T09:52:47;5.10;99.90
55634;DHT22;41504;53.162;6.788;2024-01-27T09:55:12;5.60;99.90
55634;DHT22;41504;53.162;6.788;2024-01-27T09:57:38;5.10;99.90
55634;DHT22;41504;53.162;6.788;2024-01-27T10:00:10;5.20;99.90
55634;DHT22;41504;53.162;6.788;2024-01-27T10:02:42;5.20;99.90
55634;DHT22;41504;53.162;6.788;2024-01-27T10:05:11;5.20;99.90
55634;DHT22;41504;53.162;6.788;2024-01-27T10:07:38;5.30;99.90
55634;DHT22;41504;53.162;6.788;2024-01-27T10:10:05;5.30;99.90
55634;DHT22;41504;53.162;6.788;2024-01-27T10:12:31;5.40;99.90
55634;DHT22;41504;53.162;6.788;2024-01-27T10:14:58;5.50;99.90
55634;DHT22;41504;53.162;6.788;2024-01-27T10:17:27;5.40;99.90
55634;DHT22;41504;53.162;6.788;2024-01-27T10:20:05;6.20;99.90
55634;DHT22;41504;53.162;6.788;2024-01-27T10:22:41;5.50;99.90
55634;DHT22;41504;53.162;6.788;2024-01-27T10:25:07;5.70;99.90
55634;DHT22;41504;53.162;6.788;2024-01-27T10:27:34;5.60;99.90
55634;DHT22;41504;53.162;6.788;2024-01-27T10:30:00;5.60;99.90
55634;DHT22;41504;53.162;6.788;2024-01-27T10:32:26;5.90;99.90
55634;DHT22;41504;53.162;6.788;2024-01-27T10:35:06;5.70;99.90
55634;DHT22;41504;53.162;6.788;2024-01-27T10:37:35;5.80;99.90
55634;DHT22;41504;53.162;6.788;2024-01-27T10:42:29;5.90;99.90
55634;DHT22;41504;53.162;6.788;2024-01-27T10:44:59;5.90;99.90
55634;DHT22;41504;53.162;6.788;2024-01-27T10:47:28;6.00;99.90
55634;DHT22;41504;53.162;6.788;2024-01-27T10:49:58;6.00;99.90
55634;DHT22;41504;53.162;6.788;2024-01-27T10:52:28;6.10;99.90
55634;DHT22;41504;53.162;6.788;2024-01-27T10:55:03;6.20;99.90
55634;DHT22;41504;53.162;6.788;2024-01-27T10:57:30;6.20;99.90
55634;DHT22;41504;53.162;6.788;2024-01-27T10:59:57;6.20;99.90
55634;DHT22;41504;53.162;6.788;2024-01-27T11:02:23;6.30;99.90
55634;DHT22;41504;53.162;6.788;2024-01-27T11:04:51;6.30;99.90
55634;DHT22;41504;53.162;6.788;2024-01-27T11:07:23;6.40;99.90
55634;DHT22;41504;53.162;6.788;2024-01-27T11:09:49;6.40;99.90
55634;DHT22;41504;53.162;6.788;2024-01-27T11:12:19;6.50;99.90
55634;DHT22;41504;53.162;6.788;2024-01-27T11:14:47;6.50;99.90
55634;DHT22;41504;53.162;6.788;2024-01-27T11:17:14;6.60;99.90
55634;DHT22;41504;53.162;6.788;2024-01-27T11:19:41;6.60;99.90
55634;DHT22;41504;53.162;6.788;2024-01-27T11:22:07;6.80;99.90
55634;DHT22;41504;53.162;6.788;2024-01-27T11:24:33;7.30;99.90
55634;DHT22;41504;53.162;6.788;2024-01-27T11:27:06;6.90;99.90
55634;DHT22;41504;53.162;6.788;2024-01-27T11:29:32;7.30;99.90
55634;DHT22;41504;53.162;6.788;2024-01-27T11:32:01;7.00;99.90
55634;DHT22;41504;53.162;6.788;2024-01-27T11:34:45;7.20;99.90
55634;DHT22;41504;53.162;6.788;2024-01-27T11:37:16;7.20;99.90
55634;DHT22;41504;53.162;6.788;2024-01-27T11:39:42;7.30;99.90
55634;DHT22;41504;53.162;6.788;2024-01-27T11:42:12;7.30;99.90
55634;DHT22;41504;53.162;6.788;2024-01-27T11:44:40;7.40;99.90
55634;DHT22;41504;53.162;6.788;2024-01-27T11:47:19;7.40;99.90
55634;DHT22;41504;53.162;6.788;2024-01-27T11:50:02;7.50;99.90
55634;DHT22;41504;53.162;6.788;2024-01-27T11:52:28;7.60;99.90
55634;DHT22;41504;53.162;6.788;2024-01-27T11:54:59;7.60;99.90
55634;DHT22;41504;53.162;6.788;2024-01-27T11:57:25;7.60;99.90
55634;DHT22;41504;53.162;6.788;2024-01-27T11:59:57;7.70;99.90
55634;DHT22;41504;53.162;6.788;2024-01-27T12:02:26;7.80;99.90
55634;DHT22;41504;53.162;6.788;2024-01-27T12:04:52;7.80;99.90
55634;DHT22;41504;53.162;6.788;2024-01-27T12:07:19;7.80;99.90
55634;DHT22;41504;53.162;6.788;2024-01-27T12:09:45;7.80;99.90
55634;DHT22;41504;53.162;6.788;2024-01-27T12:12:12;7.90;99.90
55634;DHT22;41504;53.162;6.788;2024-01-27T12:14:46;7.90;99.90
55634;DHT22;41504;53.162;6.788;2024-01-27T12:17:11;8.00;99.90
55634;DHT22;41504;53.162;6.788;2024-01-27T12:19:38;8.00;99.90
55634;DHT22;41504;53.162;6.788;2024-01-27T12:22:05;8.10;99.90
55634;DHT22;41504;53.162;6.788;2024-01-27T12:24:30;8.10;99.90
55634;DHT22;41504;53.162;6.788;2024-01-27T12:26:59;8.10;99.90
55634;DHT22;41504;53.162;6.788;2024-01-27T12:29:25;8.20;99.90
55634;DHT22;41504;53.162;6.788;2024-01-27T12:31:51;8.10;99.90
55634;DHT22;41504;53.162;6.788;2024-01-27T12:34:19;8.20;99.90
55634;DHT22;41504;53.162;6.788;2024-01-27T12:36:45;8.20;99.90
55634;DHT22;41504;53.162;6.788;2024-01-27T12:39:11;8.20;99.90
55634;DHT22;41504;53.162;6.788;2024-01-27T12:41:36;7.80;99.90
55634;DHT22;41504;53.162;6.788;2024-01-27T12:44:03;8.30;99.90
55634;DHT22;41504;53.162;6.788;2024-01-27T12:46:29;8.30;99.90
55634;DHT22;41504;53.162;6.788;2024-01-27T12:48:58;8.40;99.90
55634;DHT22;41504;53.162;6.788;2024-01-27T12:51:23;8.40;99.90
55634;DHT22;41504;53.162;6.788;2024-01-27T12:53:58;8.40;99.90
55634;DHT22;41504;53.162;6.788;2024-01-27T12:56:23;8.50;99.90
55634;DHT22;41504;53.162;6.788;2024-01-27T12:58:49;8.50;99.90
55634;DHT22;41504;53.162;6.788;2024-01-27T13:01:15;8.40;99.90
55634;DHT22;41504;53.162;6.788;2024-01-27T13:03:41;8.40;99.90
55634;DHT22;41504;53.162;6.788;2024-01-27T13:06:07;8.50;99.90
55634;DHT22;41504;53.162;6.788;2024-01-27T13:08:33;8.50;99.90
55634;DHT22;41504;53.162;6.788;2024-01-27T13:10:58;8.50;99.90
55634;DHT22;41504;53.162;6.788;2024-01-27T13:13:25;8.60;99.90
55634;DHT22;41504;53.162;6.788;2024-01-27T13:15:50;8.60;99.90
55634;DHT22;41504;53.162;6.788;2024-01-27T13:18:16;8.60;99.90
55634;DHT22;41504;53.162;6.788;2024-01-27T13:20:42;8.60;99.90
55634;DHT22;41504;53.162;6.788;2024-01-27T13:23:07;8.70;99.90
55634;DHT22;41504;53.162;6.788;2024-01-27T13:25:36;8.70;99.90
55634;DHT22;41504;53.162;6.788;2024-01-27T13:28:18;8.70;99.90
55634;DHT22;41504;53.162;6.788;2024-01-27T13:30:43;8.70;99.90
55634;DHT22;41504;53.162;6.788;2024-01-27T13:33:09;8.70;99.90
55634;DHT22;41504;53.162;6.788;2024-01-27T13:35:37;8.70;99.90
55634;DHT22;41504;53.162;6.788;2024-01-27T13:38:05;8.70;99.90
55634;DHT22;41504;53.162;6.788;2024-01-27T13:40:31;9.10;99.90
55634;DHT22;41504;53.162;6.788;2024-01-27T13:42:57;8.80;99.90
55634;DHT22;41504;53.162;6.788;2024-01-27T13:45:23;8.80;99.90
55634;DHT22;41504;53.162;6.788;2024-01-27T13:47:49;8.90;99.90
55634;DHT22;41504;53.162;6.788;2024-01-27T13:50:14;8.90;99.90
55634;DHT22;41504;53.162;6.788;2024-01-27T13:52:40;9.00;99.90
55634;DHT22;41504;53.162;6.788;2024-01-27T13:55:09;9.00;99.90
55634;DHT22;41504;53.162;6.788;2024-01-27T13:57:35;9.00;99.90
55634;DHT22;41504;53.162;6.788;2024-01-27T14:00:01;9.00;99.90
55634;DHT22;41504;53.162;6.788;2024-01-27T14:02:27;9.00;99.90
55634;DHT22;41504;53.162;6.788;2024-01-27T14:04:53;9.00;99.90
55634;DHT22;41504;53.162;6.788;2024-01-27T14:07:18;9.00;99.90
55634;DHT22;41504;53.162;6.788;2024-01-27T14:09:44;9.00;99.90
55634;DHT22;41504;53.162;6.788;2024-01-27T14:12:10;9.00;99.90
55634;DHT22;41504;53.162;6.788;2024-01-27T14:14:36;8.90;99.90
55634;DHT22;41504;53.162;6.788;2024-01-27T14:17:04;8.80;99.90
55634;DHT22;41504;53.162;6.788;2024-01-27T14:19:30;8.80;99.90
55634;DHT22;41504;53.162;6.788;2024-01-27T14:21:56;8.80;99.90
55634;DHT22;41504;53.162;6.788;2024-01-27T14:24:21;8.70;99.90
55634;DHT22;41504;53.162;6.788;2024-01-27T14:26:47;8.70;99.90
55634;DHT22;41504;53.162;6.788;2024-01-27T14:29:13;8.60;99.90
55634;DHT22;41504;53.162;6.788;2024-01-27T14:31:39;8.50;99.90
55634;DHT22;41504;53.162;6.788;2024-01-27T14:34:04;8.60;99.90
55634;DHT22;41504;53.162;6.788;2024-01-27T14:36:30;8.50;99.90
55634;DHT22;41504;53.162;6.788;2024-01-27T14:38:56;8.40;99.90
55634;DHT22;41504;53.162;6.788;2024-01-27T14:41:22;8.40;99.90
55634;DHT22;41504;53.162;6.788;2024-01-27T14:43:49;8.40;99.90
55634;DHT22;41504;53.162;6.788;2024-01-27T14:46:17;8.40;99.90
55634;DHT22;41504;53.162;6.788;2024-01-27T14:48:45;8.30;99.90
55634;DHT22;41504;53.162;6.788;2024-01-27T14:51:11;8.30;99.90
55634;DHT22;41504;53.162;6.788;2024-01-27T14:53:38;8.20;99.90
55634;DHT22;41504;53.162;6.788;2024-01-27T14:56:04;8.20;99.90
55634;DHT22;41504;53.162;6.788;2024-01-27T14:58:30;8.20;99.90
55634;DHT22;41504;53.162;6.788;2024-01-27T15:00:55;8.20;99.90
55634;DHT22;41504;53.162;6.788;2024-01-27T15:03:22;8.20;99.90
55634;DHT22;41504;53.162;6.788;2024-01-27T15:05:52;8.10;99.90
55634;DHT22;41504;53.162;6.788;2024-01-27T15:08:24;8.10;99.90
55634;DHT22;41504;53.162;6.788;2024-01-27T15:10:50;8.10;99.90
55634;DHT22;41504;53.162;6.788;2024-01-27T15:13:16;8.00;99.90
55634;DHT22;41504;53.162;6.788;2024-01-27T15:15:49;8.10;99.90
55634;DHT22;41504;53.162;6.788;2024-01-27T15:18:15;8.00;99.90
55634;DHT22;41504;53.162;6.788;2024-01-27T15:20:44;7.90;99.90
55634;DHT22;41504;53.162;6.788;2024-01-27T15:23:10;7.90;99.90
55634;DHT22;41504;53.162;6.788;2024-01-27T15:25:36;7.90;99.90
55634;DHT22;41504;53.162;6.788;2024-01-27T15:28:02;7.80;99.90
55634;DHT22;41504;53.162;6.788;2024-01-27T15:30:33;7.80;99.90
55634;DHT22;41504;53.162;6.788;2024-01-27T15:32:59;7.80;99.90
55634;DHT22;41504;53.162;6.788;2024-01-27T15:35:27;7.70;99.90
55634;DHT22;41504;53.162;6.788;2024-01-27T15:37:58;7.60;99.90
55634;DHT22;41504;53.162;6.788;2024-01-27T15:40:25;7.60;99.90
55634;DHT22;41504;53.162;6.788;2024-01-27T15:42:51;7.60;99.90
55634;DHT22;41504;53.162;6.788;2024-01-27T15:45:17;7.50;99.90
55634;DHT22;41504;53.162;6.788;2024-01-27T15:47:43;7.50;99.90